sensor_id;sensor_type;location;lat;lon;timestamp;temperature;humidity
23405;DHT22;11875;49.356;2.718;2022-09-16T00:00:18;15.90;99.90
23405;DHT22;11875;49.356;2.718;2022-09-16T00:02:44;15.90;99.90
23405;DHT22;11875;49.356;2.718;2022-09-16T00:05:10;15.90;99.90
23405;DHT22;11875;49.356;2.718;2022-09-16T00:07:36;15.90;99.90
23405;DHT22;11875;49.356;2.718;2022-09-16T00:10:02;16.00;99.90
23405;DHT22;11875;49.356;2.718;2022-09-16T00:12:28;16.00;99.90
23405;DHT22;11875;49.356;2.718;2022-09-16T00:14:54;16.00;99.90
23405;DHT22;11875;49.356;2.718;2022-09-16T00:17:20;16.00;99.90
23405;DHT22;11875;49.356;2.718;2022-09-16T00:19:46;16.00;99.90
23405;DHT22;11875;49.356;2.718;2022-09-16T00:22:12;15.90;99.90
23405;DHT22;11875;49.356;2.718;2022-09-16T00:24:38;15.90;99.90
23405;DHT22;11875;49.356;2.718;2022-09-16T00:27:04;15.80;99.90
23405;DHT22;11875;49.356;2.718;2022-09-16T00:29:29;15.80;99.90
23405;DHT22;11875;49.356;2.718;2022-09-16T00:31:55;15.80;99.90
23405;DHT22;11875;49.356;2.718;2022-09-16T00:34:21;15.80;99.90
23405;DHT22;11875;49.356;2.718;2022-09-16T00:36:46;15.70;99.90
23405;DHT22;11875;49.356;2.718;2022-09-16T00:39:12;15.70;99.90
23405;DHT22;11875;49.356;2.718;2022-09-16T00:41:38;15.70;99.90
23405;DHT22;11875;49.356;2.718;2022-09-16T00:47:13;15.90;99.90
23405;DHT22;11875;49.356;2.718;2022-09-16T00:49:41;15.80;99.90
23405;DHT22;11875;49.356;2.718;2022-09-16T00:52:08;15.70;99.90
23405;DHT22;11875;49.356;2.718;2022-09-16T00:54:35;15.70;99.90
23405;DHT22;11875;49.356;2.718;2022-09-16T00:57:03;15.70;99.90
23405;DHT22;11875;49.356;2.718;2022-09-16T00:59:33;15.70;99.90
23405;DHT22;11875;49.356;2.718;2022-09-16T01:02:06;15.70;99.90
23405;DHT22;11875;49.356;2.718;2022-09-16T01:04:40;15.70;99.90
23405;DHT22;11875;49.356;2.718;2022-09-16T01:07:08;15.70;99.90
23405;DHT22;11875;49.356;2.718;2022-09-16T01:09:33;15.70;99.90
23405;DHT22;11875;49.356;2.718;2022-09-16T01:11:59;15.70;99.90
23405;DHT22;11875;49.356;2.718;2022-09-16T01:14:25;15.70;99.90
23405;DHT22;11875;49.356;2.718;2022-09-16T01:20:25;15.50;99.90
23405;DHT22;11875;49.356;2.718;2022-09-16T01:31:31;15.40;99.90
23405;DHT22;11875;49.356;2.718;2022-09-16T01:39:08;15.50;99.90
23405;DHT22;11875;49.356;2.718;2022-09-16T01:44:24;15.30;99.90
23405;DHT22;11875;49.356;2.718;2022-09-16T01:47:08;15.30;99.90
23405;DHT22;11875;49.356;2.718;2022-09-16T01:53:11;15.30;99.90
23405;DHT22;11875;49.356;2.718;2022-09-16T01:58:25;15.30;99.90
23405;DHT22;11875;49.356;2.718;2022-09-16T02:00:57;15.30;99.90
23405;DHT22;11875;49.356;2.718;2022-09-16T02:03:27;15.30;99.90
23405;DHT22;11875;49.356;2.718;2022-09-16T02:06:18;15.30;99.90
23405;DHT22;11875;49.356;2.718;2022-09-16T02:08:50;15.30;99.90
23405;DHT22;11875;49.356;2.718;2022-09-16T02:11:19;15.30;99.90
23405;DHT22;11875;49.356;2.718;2022-09-16T02:13:48;15.20;99.90
23405;DHT22;11875;49.356;2.718;2022-09-16T02:16:29;15.30;99.90
23405;DHT22;11875;49.356;2.718;2022-09-16T02:18:59;15.30;99.90
23405;DHT22;11875;49.356;2.718;2022-09-16T02:21:28;15.20;99.90
23405;DHT22;11875;49.356;2.718;2022-09-16T02:23:58;15.30;99.90
23405;DHT22;11875;49.356;2.718;2022-09-16T02:26:28;15.40;99.90
23405;DHT22;11875;49.356;2.718;2022-09-16T02:28:55;15.40;99.90
23405;DHT22;11875;49.356;2.718;2022-09-16T02:31:25;15.40;99.90
23405;DHT22;11875;49.356;2.718;2022-09-16T02:33:59;15.40;99.90
23405;DHT22;11875;49.356;2.718;2022-09-16T02:36:26;15.40;99.90
23405;DHT22;11875;49.356;2.718;2022-09-16T02:39:09;15.40;99.90
23405;DHT22;11875;49.356;2.718;2022-09-16T02:41:39;15.40;99.90
23405;DHT22;11875;49.356;2.718;2022-09-16T02:44:06;15.40;99.90
23405;DHT22;11875;49.356;2.718;2022-09-16T02:46:39;15.40;99.90
23405;DHT22;11875;49.356;2.718;2022-09-16T02:54:55;15.50;99.90
23405;DHT22;11875;49.356;2.718;2022-09-16T02:57:25;15.50;99.90
23405;DHT22;11875;49.356;2.718;2022-09-16T02:59:51;15.40;99.90
23405;DHT22;11875;49.356;2.718;2022-09-16T03:02:17;15.40;99.90
23405;DHT22;11875;49.356;2.718;2022-09-16T03:04:44;15.40;99.90
23405;DHT22;11875;49.356;2.718;2022-09-16T03:07:10;15.40;99.90
23405;DHT22;11875;49.356;2.718;2022-09-16T03:09:39;15.40;99.90
23405;DHT22;11875;49.356;2.718;2022-09-16T03:14:52;15.40;99.90
23405;DHT22;11875;49.356;2.718;2022-09-16T03:20:08;15.30;99.90
23405;DHT22;11875;49.356;2.718;2022-09-16T03:22:56;15.30;99.90
23405;DHT22;11875;49.356;2.718;2022-09-16T03:25:44;15.30;99.90
23405;DHT22;11875;49.356;2.718;2022-09-16T03:28:19;15.30;99.90
23405;DHT22;11875;49.356;2.718;2022-09-16T03:33:49;15.40;99.90
23405;DHT22;11875;49.356;2.718;2022-09-16T03:36:19;15.40;99.90
23405;DHT22;11875;49.356;2.718;2022-09-16T03:38:47;15.50;99.90
23405;DHT22;11875;49.356;2.718;2022-09-16T03:41:14;15.60;99.90
23405;DHT22;11875;49.356;2.718;2022-09-16T03:43:52;15.60;99.90
23405;DHT22;11875;49.356;2.718;2022-09-16T03:46:17;15.60;99.90
23405;DHT22;11875;49.356;2.718;2022-09-16T03:48:43;15.60;99.90
23405;DHT22;11875;49.356;2.718;2022-09-16T03:51:08;15.60;99.90
23405;DHT22;11875;49.356;2.718;2022-09-16T03:53:34;15.50;99.90
23405;DHT22;11875;49.356;2.718;2022-09-16T03:55:59;15.60;99.90
23405;DHT22;11875;49.356;2.718;2022-09-16T03:58:25;15.50;99.90
23405;DHT22;11875;49.356;2.718;2022-09-16T04:00:51;15.50;99.90
23405;DHT22;11875;49.356;2.718;2022-09-16T04:03:16;15.50;99.90
23405;DHT22;11875;49.356;2.718;2022-09-16T04:05:42;15.50;99.90
23405;DHT22;11875;49.356;2.718;2022-09-16T04:08:07;15.40;99.90
23405;DHT22;11875;49.356;2.718;2022-09-16T04:10:33;15.40;99.90
23405;DHT22;11875;49.356;2.718;2022-09-16T04:12:59;15.40;99.90
23405;DHT22;11875;49.356;2.718;2022-09-16T04:15:24;15.40;99.90
23405;DHT22;11875;49.356;2.718;2022-09-16T04:17:50;15.30;99.90
23405;DHT22;11875;49.356;2.718;2022-09-16T04:20:16;15.40;99.90
23405;DHT22;11875;49.356;2.718;2022-09-16T04:22:42;15.50;99.90
23405;DHT22;11875;49.356;2.718;2022-09-16T04:25:08;15.60;99.90
23405;DHT22;11875;49.356;2.718;2022-09-16T04:27:34;15.60;99.90
23405;DHT22;11875;49.356;2.718;2022-09-16T04:30:00;15.70;99.90
23405;DHT22;11875;49.356;2.718;2022-09-16T04:32:25;15.70;99.90
23405;DHT22;11875;49.356;2.718;2022-09-16T04:34:51;15.70;99.90
23405;DHT22;11875;49.356;2.718;2022-09-16T04:37:16;15.70;99.90
23405;DHT22;11875;49.356;2.718;2022-09-16T04:39:42;15.70;99.90
23405;DHT22;11875;49.356;2.718;2022-09-16T04:42:07;15.60;99.90
23405;DHT22;11875;49.356;2.718;2022-09-16T04:44:36;15.70;99.90
23405;DHT22;11875;49.356;2.718;2022-09-16T04:47:02;15.70;99.90
23405;DHT22;11875;49.356;2.718;2022-09-16T04:49:28;15.70;99.90
23405;DHT22;11875;49.356;2.718;2022-09-16T04:51:53;15.70;99.90
23405;DHT22;11875;49.356;2.718;2022-09-16T04:54:19;15.70;99.90
23405;DHT22;11875;49.356;2.718;2022-09-16T04:56:44;15.60;99.90
23405;DHT22;11875;49.356;2.718;2022-09-16T04:59:11;15.70;99.90
23405;DHT22;11875;49.356;2.718;2022-09-16T05:01:37;15.70;99.90
23405;DHT22;11875;49.356;2.718;2022-09-16T05:04:05;15.60;99.90
23405;DHT22;11875;49.356;2.718;2022-09-16T05:06:34;15.50;99.90
23405;DHT22;11875;49.356;2.718;2022-09-16T05:09:00;15.50;99.90
23405;DHT22;11875;49.356;2.718;2022-09-16T05:11:28;15.50;99.90
23405;DHT22;11875;49.356;2.718;2022-09-16T05:13:58;15.50;99.90
23405;DHT22;11875;49.356;2.718;2022-09-16T05:16:23;15.60;99.90
23405;DHT22;11875;49.356;2.718;2022-09-16T05:18:52;15.50;99.90
23405;DHT22;11875;49.356;2.718;2022-09-16T05:21:20;15.50;99.90
23405;DHT22;11875;49.356;2.718;2022-09-16T05:23:46;15.50;99.90
23405;DHT22;11875;49.356;2.718;2022-09-16T05:26:24;15.40;99.90
23405;DHT22;11875;49.356;2.718;2022-09-16T05:28:51;15.30;99.90
23405;DHT22;11875;49.356;2.718;2022-09-16T05:31:19;15.20;99.90
23405;DHT22;11875;49.356;2.718;2022-09-16T05:33:52;15.20;99.90
23405;DHT22;11875;49.356;2.718;2022-09-16T05:36:18;15.20;99.90
23405;DHT22;11875;49.356;2.718;2022-09-16T05:38:44;15.20;99.90
23405;DHT22;11875;49.356;2.718;2022-09-16T05:41:10;15.30;99.90
23405;DHT22;11875;49.356;2.718;2022-09-16T05:43:37;15.30;99.90
23405;DHT22;11875;49.356;2.718;2022-09-16T05:46:04;15.40;99.90
23405;DHT22;11875;49.356;2.718;2022-09-16T05:48:30;15.40;99.90
23405;DHT22;11875;49.356;2.718;2022-09-16T05:50:56;15.50;99.90
23405;DHT22;11875;49.356;2.718;2022-09-16T05:53:23;15.60;99.90
23405;DHT22;11875;49.356;2.718;2022-09-16T05:56:14;15.60;99.90
23405;DHT22;11875;49.356;2.718;2022-09-16T05:58:40;15.60;99.90
23405;DHT22;11875;49.356;2.718;2022-09-16T06:01:10;15.50;99.90
23405;DHT22;11875;49.356;2.718;2022-09-16T06:03:37;15.50;99.90
23405;DHT22;11875;49.356;2.718;2022-09-16T06:08:40;15.70;99.90
23405;DHT22;11875;49.356;2.718;2022-09-16T06:11:08;15.70;99.90
23405;DHT22;11875;49.356;2.718;2022-09-16T06:13:35;15.80;99.90
23405;DHT22;11875;49.356;2.718;2022-09-16T06:16:01;15.70;99.90
23405;DHT22;11875;49.356;2.718;2022-09-16T06:18:28;15.70;99.90
23405;DHT22;11875;49.356;2.718;2022-09-16T06:20:55;15.70;99.90
23405;DHT22;11875;49.356;2.718;2022-09-16T06:23:21;15.80;99.90
23405;DHT22;11875;49.356;2.718;2022-09-16T06:25:47;15.90;99.90
23405;DHT22;11875;49.356;2.718;2022-09-16T06:28:12;15.90;99.90
23405;DHT22;11875;49.356;2.718;2022-09-16T06:30:38;15.90;99.90
23405;DHT22;11875;49.356;2.718;2022-09-16T06:33:05;15.90;99.90
23405;DHT22;11875;49.356;2.718;2022-09-16T06:35:31;15.90;99.90
23405;DHT22;11875;49.356;2.718;2022-09-16T06:37:57;16.00;99.90
23405;DHT22;11875;49.356;2.718;2022-09-16T06:40:24;16.00;99.90
23405;DHT22;11875;49.356;2.718;2022-09-16T06:42:53;16.00;99.90
23405;DHT22;11875;49.356;2.718;2022-09-16T06:45:20;16.00;99.90
23405;DHT22;11875;49.356;2.718;2022-09-16T06:47:46;16.10;99.90
23405;DHT22;11875;49.356;2.718;2022-09-16T06:50:11;16.10;99.90
23405;DHT22;11875;49.356;2.718;2022-09-16T06:52:37;16.10;99.90
23405;DHT22;11875;49.356;2.718;2022-09-16T06:55:03;16.20;99.90
23405;DHT22;11875;49.356;2.718;2022-09-16T06:57:29;16.30;99.90
23405;DHT22;11875;49.356;2.718;2022-09-16T06:59:55;16.30;99.90
23405;DHT22;11875;49.356;2.718;2022-09-16T07:02:20;16.30;99.90
23405;DHT22;11875;49.356;2.718;2022-09-16T07:04:46;16.30;99.90
23405;DHT22;11875;49.356;2.718;2022-09-16T07:07:12;16.30;99.90
23405;DHT22;11875;49.356;2.718;2022-09-16T07:09:38;16.90;99.90
23405;DHT22;11875;49.356;2.718;2022-09-16T07:12:04;16.40;99.90
23405;DHT22;11875;49.356;2.718;2022-09-16T07:14:30;16.50;99.90
23405;DHT22;11875;49.356;2.718;2022-09-16T07:16:57;16.50;99.90
23405;DHT22;11875;49.356;2.718;2022-09-16T07:19:24;16.50;99.90
23405;DHT22;11875;49.356;2.718;2022-09-16T07:21:50;16.50;99.90
23405;DHT22;11875;49.356;2.718;2022-09-16T07:24:15;16.60;99.90
23405;DHT22;11875;49.356;2.718;2022-09-16T07:26:42;16.70;99.90
23405;DHT22;11875;49.356;2.718;2022-09-16T07:29:16;16.70;99.90
23405;DHT22;11875;49.356;2.718;2022-09-16T07:31:42;16.80;99.90
23405;DHT22;11875;49.356;2.718;2022-09-16T07:34:09;16.80;99.90
23405;DHT22;11875;49.356;2.718;2022-09-16T07:36:47;16.90;99.90
23405;DHT22;11875;49.356;2.718;2022-09-16T07:39:14;16.90;99.90
23405;DHT22;11875;49.356;2.718;2022-09-16T07:41:43;16.90;99.90
23405;DHT22;11875;49.356;2.718;2022-09-16T07:44:11;17.00;99.90
23405;DHT22;11875;49.356;2.718;2022-09-16T07:46:37;17.00;99.90
23405;DHT22;11875;49.356;2.718;2022-09-16T07:49:05;17.00;99.90
23405;DHT22;11875;49.356;2.718;2022-09-16T07:51:32;16.80;99.90
23405;DHT22;11875;49.356;2.718;2022-09-16T07:54:04;16.80;99.90
23405;DHT22;11875;49.356;2.718;2022-09-16T07:56:33;16.90;99.90
23405;DHT22;11875;49.356;2.718;2022-09-16T07:59:00;17.00;99.90
23405;DHT22;11875;49.356;2.718;2022-09-16T08:01:26;17.10;99.90
23405;DHT22;11875;49.356;2.718;2022-09-16T08:03:54;17.10;99.90
23405;DHT22;11875;49.356;2.718;2022-09-16T08:06:23;17.10;99.90
23405;DHT22;11875;49.356;2.718;2022-09-16T08:08:54;17.20;99.90
23405;DHT22;11875;49.356;2.718;2022-09-16T08:11:20;17.20;99.90
23405;DHT22;11875;49.356;2.718;2022-09-16T08:13:47;17.30;99.90
23405;DHT22;11875;49.356;2.718;2022-09-16T08:16:17;17.30;99.90
23405;DHT22;11875;49.356;2.718;2022-09-16T08:18:44;17.40;99.90
23405;DHT22;11875;49.356;2.718;2022-09-16T08:21:16;17.40;99.90
23405;DHT22;11875;49.356;2.718;2022-09-16T08:23:43;17.50;99.90
23405;DHT22;11875;49.356;2.718;2022-09-16T08:26:09;17.60;99.90
23405;DHT22;11875;49.356;2.718;2022-09-16T08:28:36;17.60;99.90
23405;DHT22;11875;49.356;2.718;2022-09-16T08:31:03;17.60;99.90
23405;DHT22;11875;49.356;2.718;2022-09-16T08:33:30;17.70;99.90
23405;DHT22;11875;49.356;2.718;2022-09-16T08:36:00;17.70;99.90
23405;DHT22;11875;49.356;2.718;2022-09-16T08:38:26;17.90;99.90
23405;DHT22;11875;49.356;2.718;2022-09-16T08:41:00;17.90;99.90
23405;DHT22;11875;49.356;2.718;2022-09-16T08:43:38;18.00;99.90
23405;DHT22;11875;49.356;2.718;2022-09-16T08:46:17;18.20;99.90
23405;DHT22;11875;49.356;2.718;2022-09-16T08:49:14;18.30;99.90
23405;DHT22;11875;49.356;2.718;2022-09-16T08:51:41;18.30;99.90
23405;DHT22;11875;49.356;2.718;2022-09-16T08:54:14;18.30;99.90
23405;DHT22;11875;49.356;2.718;2022-09-16T08:56:42;18.30;98.50
23405;DHT22;11875;49.356;2.718;2022-09-16T08:59:15;18.40;99.00
23405;DHT22;11875;49.356;2.718;2022-09-16T09:04:49;18.50;98.60
23405;DHT22;11875;49.356;2.718;2022-09-16T09:07:42;18.60;97.60
23405;DHT22;11875;49.356;2.718;2022-09-16T09:10:27;18.60;96.10
23405;DHT22;11875;49.356;2.718;2022-09-16T09:13:39;18.60;96.60
23405;DHT22;11875;49.356;2.718;2022-09-16T09:15:59;18.60;96.80
23405;DHT22;11875;49.356;2.718;2022-09-16T09:21:39;18.60;96.60
23405;DHT22;11875;49.356;2.718;2022-09-16T09:24:46;18.70;96.60
23405;DHT22;11875;49.356;2.718;2022-09-16T09:30:42;18.90;96.80
23405;DHT22;11875;49.356;2.718;2022-09-16T09:35:42;18.90;96.20
23405;DHT22;11875;49.356;2.718;2022-09-16T09:41:29;18.90;95.60
23405;DHT22;11875;49.356;2.718;2022-09-16T09:46:54;18.80;95.90
23405;DHT22;11875;49.356;2.718;2022-09-16T09:49:33;18.80;95.40
23405;DHT22;11875;49.356;2.718;2022-09-16T09:52:11;18.90;95.20
23405;DHT22;11875;49.356;2.718;2022-09-16T09:54:38;18.90;95.50
23405;DHT22;11875;49.356;2.718;2022-09-16T09:57:15;19.00;95.80
23405;DHT22;11875;49.356;2.718;2022-09-16T10:00:03;19.00;95.50
23405;DHT22;11875;49.356;2.718;2022-09-16T10:02:40;19.00;95.30
23405;DHT22;11875;49.356;2.718;2022-09-16T10:05:21;19.10;95.50
23405;DHT22;11875;49.356;2.718;2022-09-16T10:07:50;19.20;94.90
23405;DHT22;11875;49.356;2.718;2022-09-16T10:10:20;19.30;94.60
23405;DHT22;11875;49.356;2.718;2022-09-16T10:12:46;19.40;95.00
23405;DHT22;11875;49.356;2.718;2022-09-16T10:15:25;19.40;95.00
23405;DHT22;11875;49.356;2.718;2022-09-16T10:17:52;19.50;94.80
23405;DHT22;11875;49.356;2.718;2022-09-16T10:20:30;19.50;94.90
23405;DHT22;11875;49.356;2.718;2022-09-16T10:23:15;19.60;94.40
23405;DHT22;11875;49.356;2.718;2022-09-16T10:25:41;19.60;94.80
23405;DHT22;11875;49.356;2.718;2022-09-16T10:28:23;19.70;94.30
23405;DHT22;11875;49.356;2.718;2022-09-16T10:30:51;19.80;94.10
23405;DHT22;11875;49.356;2.718;2022-09-16T10:33:32;19.90;94.20
23405;DHT22;11875;49.356;2.718;2022-09-16T10:36:05;19.90;93.80
23405;DHT22;11875;49.356;2.718;2022-09-16T10:38:43;19.90;93.90
23405;DHT22;11875;49.356;2.718;2022-09-16T10:41:16;20.00;94.10
23405;DHT22;11875;49.356;2.718;2022-09-16T10:44:53;20.10;93.60
23405;DHT22;11875;49.356;2.718;2022-09-16T10:49:24;20.00;93.10
23405;DHT22;11875;49.356;2.718;2022-09-16T10:51:52;20.00;93.50
23405;DHT22;11875;49.356;2.718;2022-09-16T10:54:26;20.10;92.60
23405;DHT22;11875;49.356;2.718;2022-09-16T10:56:53;20.20;92.40
23405;DHT22;11875;49.356;2.718;2022-09-16T10:59:18;20.20;92.10
23405;DHT22;11875;49.356;2.718;2022-09-16T11:02:05;20.10;91.40
23405;DHT22;11875;49.356;2.718;2022-09-16T11:04:47;20.20;92.20
23405;DHT22;11875;49.356;2.718;2022-09-16T11:10:17;20.10;91.20
23405;DHT22;11875;49.356;2.718;2022-09-16T11:23:26;20.30;89.00
23405;DHT22;11875;49.356;2.718;2022-09-16T11:29:17;20.50;87.40
23405;DHT22;11875;49.356;2.718;2022-09-16T11:34:42;20.30;87.50
23405;DHT22;11875;49.356;2.718;2022-09-16T11:42:26;20.20;84.80
23405;DHT22;11875;49.356;2.718;2022-09-16T11:48:08;20.10;87.90
23405;DHT22;11875;49.356;2.718;2022-09-16T11:50:44;19.90;89.30
23405;DHT22;11875;49.356;2.718;2022-09-16T11:53:43;19.80;88.90
23405;DHT22;11875;49.356;2.718;2022-09-16T11:56:18;19.80;88.90
23405;DHT22;11875;49.356;2.718;2022-09-16T12:01:42;19.80;90.00
23405;DHT22;11875;49.356;2.718;2022-09-16T12:04:27;19.90;90.20
23405;DHT22;11875;49.356;2.718;2022-09-16T12:07:03;20.10;87.80
23405;DHT22;11875;49.356;2.718;2022-09-16T12:09:50;20.00;85.40
23405;DHT22;11875;49.356;2.718;2022-09-16T12:12:21;20.00;85.30
23405;DHT22;11875;49.356;2.718;2022-09-16T12:14:55;20.00;84.60
23405;DHT22;11875;49.356;2.718;2022-09-16T12:17:27;20.00;83.10
23405;DHT22;11875;49.356;2.718;2022-09-16T12:26:02;19.70;81.40
23405;DHT22;11875;49.356;2.718;2022-09-16T12:33:56;19.50;84.60
23405;DHT22;11875;49.356;2.718;2022-09-16T12:36:31;19.50;86.20
23405;DHT22;11875;49.356;2.718;2022-09-16T12:38:59;19.50;85.60
23405;DHT22;11875;49.356;2.718;2022-09-16T12:41:50;19.60;81.80
23405;DHT22;11875;49.356;2.718;2022-09-16T12:47:21;19.70;84.60
23405;DHT22;11875;49.356;2.718;2022-09-16T13:01:30;20.00;82.30
23405;DHT22;11875;49.356;2.718;2022-09-16T13:07:27;20.00;83.60
23405;DHT22;11875;49.356;2.718;2022-09-16T13:12:31;19.90;83.10
23405;DHT22;11875;49.356;2.718;2022-09-16T13:15:02;19.90;83.40
23405;DHT22;11875;49.356;2.718;2022-09-16T13:20:15;19.90;83.10
23405;DHT22;11875;49.356;2.718;2022-09-16T13:23:02;20.00;83.40
23405;DHT22;11875;49.356;2.718;2022-09-16T13:25:42;20.00;84.20
23405;DHT22;11875;49.356;2.718;2022-09-16T13:33:48;20.20;85.30
23405;DHT22;11875;49.356;2.718;2022-09-16T13:39:04;20.30;87.00
23405;DHT22;11875;49.356;2.718;2022-09-16T13:41:35;20.40;88.10
23405;DHT22;11875;49.356;2.718;2022-09-16T13:46:50;20.40;88.20
23405;DHT22;11875;49.356;2.718;2022-09-16T13:49:23;20.30;87.30
23405;DHT22;11875;49.356;2.718;2022-09-16T13:51:50;20.10;87.50
23405;DHT22;11875;49.356;2.718;2022-09-16T13:54:39;20.10;88.30
23405;DHT22;11875;49.356;2.718;2022-09-16T13:57:32;20.10;89.00
23405;DHT22;11875;49.356;2.718;2022-09-16T14:00:11;20.10;89.40
23405;DHT22;11875;49.356;2.718;2022-09-16T14:13:56;20.20;91.20
23405;DHT22;11875;49.356;2.718;2022-09-16T14:16:27;20.20;90.50
23405;DHT22;11875;49.356;2.718;2022-09-16T14:19:00;20.40;90.70
23405;DHT22;11875;49.356;2.718;2022-09-16T14:21:28;20.40;91.00
23405;DHT22;11875;49.356;2.718;2022-09-16T14:23:54;20.30;89.90
23405;DHT22;11875;49.356;2.718;2022-09-16T14:26:23;20.20;89.70
23405;DHT22;11875;49.356;2.718;2022-09-16T14:28:49;20.20;90.10
23405;DHT22;11875;49.356;2.718;2022-09-16T14:31:29;20.20;89.90
23405;DHT22;11875;49.356;2.718;2022-09-16T14:34:04;20.10;88.00
23405;DHT22;11875;49.356;2.718;2022-09-16T14:36:39;20.00;87.30
23405;DHT22;11875;49.356;2.718;2022-09-16T14:39:11;19.80;86.20
23405;DHT22;11875;49.356;2.718;2022-09-16T14:41:45;19.80;85.20
23405;DHT22;11875;49.356;2.718;2022-09-16T14:44:44;19.80;84.80
23405;DHT22;11875;49.356;2.718;2022-09-16T14:49:43;19.70;83.50
23405;DHT22;11875;49.356;2.718;2022-09-16T14:52:20;19.80;84.00
23405;DHT22;11875;49.356;2.718;2022-09-16T14:54:46;19.80;83.40
23405;DHT22;11875;49.356;2.718;2022-09-16T14:57:23;19.80;83.20
23405;DHT22;11875;49.356;2.718;2022-09-16T14:59:51;19.80;82.10
23405;DHT22;11875;49.356;2.718;2022-09-16T15:04:52;20.20;82.20
23405;DHT22;11875;49.356;2.718;2022-09-16T15:07:28;20.60;82.30
23405;DHT22;11875;49.356;2.718;2022-09-16T15:12:54;20.90;84.30
23405;DHT22;11875;49.356;2.718;2022-09-16T15:15:48;20.70;82.50
23405;DHT22;11875;49.356;2.718;2022-09-16T15:18:36;20.40;82.40
23405;DHT22;11875;49.356;2.718;2022-09-16T15:21:08;20.20;82.70
23405;DHT22;11875;49.356;2.718;2022-09-16T15:23:50;19.90;81.90
23405;DHT22;11875;49.356;2.718;2022-09-16T15:26:18;19.70;83.00
23405;DHT22;11875;49.356;2.718;2022-09-16T15:29:01;19.90;83.60
23405;DHT22;11875;49.356;2.718;2022-09-16T15:31:35;19.90;80.10
23405;DHT22;11875;49.356;2.718;2022-09-16T15:34:03;19.90;80.40
23405;DHT22;11875;49.356;2.718;2022-09-16T15:36:35;19.90;80.80
23405;DHT22;11875;49.356;2.718;2022-09-16T15:39:02;19.70;82.00
23405;DHT22;11875;49.356;2.718;2022-09-16T15:41:27;19.50;82.90
23405;DHT22;11875;49.356;2.718;2022-09-16T15:43:55;19.50;83.90
23405;DHT22;11875;49.356;2.718;2022-09-16T15:46:23;19.50;84.90
23405;DHT22;11875;49.356;2.718;2022-09-16T15:48:52;19.70;84.70
23405;DHT22;11875;49.356;2.718;2022-09-16T15:51:32;19.60;83.50
23405;DHT22;11875;49.356;2.718;2022-09-16T15:57:00;19.70;82.10
23405;DHT22;11875;49.356;2.718;2022-09-16T16:05:29;19.80;80.10
23405;DHT22;11875;49.356;2.718;2022-09-16T16:08:01;19.80;80.50
23405;DHT22;11875;49.356;2.718;2022-09-16T16:10:32;19.80;80.60
23405;DHT22;11875;49.356;2.718;2022-09-16T16:13:00;19.80;81.10
23405;DHT22;11875;49.356;2.718;2022-09-16T16:15:32;19.80;80.80
23405;DHT22;11875;49.356;2.718;2022-09-16T16:18:07;19.70;80.90
23405;DHT22;11875;49.356;2.718;2022-09-16T16:20:35;19.60;81.10
23405;DHT22;11875;49.356;2.718;2022-09-16T16:23:01;19.50;82.80
23405;DHT22;11875;49.356;2.718;2022-09-16T16:25:27;19.40;84.30
23405;DHT22;11875;49.356;2.718;2022-09-16T16:27:53;19.40;85.20
23405;DHT22;11875;49.356;2.718;2022-09-16T16:30:19;19.50;86.00
23405;DHT22;11875;49.356;2.718;2022-09-16T16:32:45;19.50;86.90
23405;DHT22;11875;49.356;2.718;2022-09-16T16:35:11;19.40;88.10
23405;DHT22;11875;49.356;2.718;2022-09-16T16:37:37;19.40;88.20
23405;DHT22;11875;49.356;2.718;2022-09-16T16:40:04;19.40;88.30
23405;DHT22;11875;49.356;2.718;2022-09-16T16:42:29;19.30;89.30
23405;DHT22;11875;49.356;2.718;2022-09-16T16:44:55;19.20;88.50
23405;DHT22;11875;49.356;2.718;2022-09-16T16:47:21;18.90;84.40
23405;DHT22;11875;49.356;2.718;2022-09-16T16:49:48;18.60;83.80
23405;DHT22;11875;49.356;2.718;2022-09-16T16:52:15;18.30;85.70
23405;DHT22;11875;49.356;2.718;2022-09-16T16:54:40;18.10;89.10
23405;DHT22;11875;49.356;2.718;2022-09-16T16:57:08;17.90;91.40
23405;DHT22;11875;49.356;2.718;2022-09-16T16:59:34;17.80;91.70
23405;DHT22;11875;49.356;2.718;2022-09-16T17:01:59;17.60;91.30
23405;DHT22;11875;49.356;2.718;2022-09-16T17:04:25;17.60;91.40
23405;DHT22;11875;49.356;2.718;2022-09-16T17:06:51;17.50;91.60
23405;DHT22;11875;49.356;2.718;2022-09-16T17:09:17;17.40;91.60
23405;DHT22;11875;49.356;2.718;2022-09-16T17:11:53;17.30;92.60
23405;DHT22;11875;49.356;2.718;2022-09-16T17:14:20;17.20;91.80
23405;DHT22;11875;49.356;2.718;2022-09-16T17:16:46;17.10;92.90
23405;DHT22;11875;49.356;2.718;2022-09-16T17:19:13;17.10;93.70
23405;DHT22;11875;49.356;2.718;2022-09-16T17:21:39;17.20;94.20
23405;DHT22;11875;49.356;2.718;2022-09-16T17:24:05;17.20;94.40
23405;DHT22;11875;49.356;2.718;2022-09-16T17:26:32;17.20;95.00
23405;DHT22;11875;49.356;2.718;2022-09-16T17:28:58;17.20;95.10
23405;DHT22;11875;49.356;2.718;2022-09-16T17:31:25;17.20;95.40
23405;DHT22;11875;49.356;2.718;2022-09-16T17:33:54;17.30;95.70
23405;DHT22;11875;49.356;2.718;2022-09-16T17:36:20;17.30;95.80
23405;DHT22;11875;49.356;2.718;2022-09-16T17:38:53;17.30;96.00
23405;DHT22;11875;49.356;2.718;2022-09-16T17:41:19;17.30;96.40
23405;DHT22;11875;49.356;2.718;2022-09-16T17:43:46;17.30;95.80
23405;DHT22;11875;49.356;2.718;2022-09-16T17:46:15;17.20;96.30
23405;DHT22;11875;49.356;2.718;2022-09-16T17:48:42;17.20;96.60
23405;DHT22;11875;49.356;2.718;2022-09-16T17:51:09;17.20;96.40
23405;DHT22;11875;49.356;2.718;2022-09-16T17:53:35;17.20;96.60
23405;DHT22;11875;49.356;2.718;2022-09-16T17:56:12;17.20;96.40
23405;DHT22;11875;49.356;2.718;2022-09-16T17:58:40;17.10;96.50
23405;DHT22;11875;49.356;2.718;2022-09-16T18:01:15;17.10;96.20
23405;DHT22;11875;49.356;2.718;2022-09-16T18:03:43;17.00;96.00
23405;DHT22;11875;49.356;2.718;2022-09-16T18:06:23;17.00;95.90
23405;DHT22;11875;49.356;2.718;2022-09-16T18:08:49;16.90;95.60
23405;DHT22;11875;49.356;2.718;2022-09-16T18:11:16;16.80;95.90
23405;DHT22;11875;49.356;2.718;2022-09-16T18:13:43;16.80;95.80
23405;DHT22;11875;49.356;2.718;2022-09-16T18:16:13;16.70;95.80
23405;DHT22;11875;49.356;2.718;2022-09-16T18:18:41;16.80;95.90
23405;DHT22;11875;49.356;2.718;2022-09-16T18:21:08;16.80;95.90
23405;DHT22;11875;49.356;2.718;2022-09-16T18:23:34;16.90;96.00
23405;DHT22;11875;49.356;2.718;2022-09-16T18:26:05;16.90;95.90
23405;DHT22;11875;49.356;2.718;2022-09-16T18:28:34;16.90;95.70
23405;DHT22;11875;49.356;2.718;2022-09-16T18:31:09;16.90;95.80
23405;DHT22;11875;49.356;2.718;2022-09-16T18:33:35;16.90;96.30
23405;DHT22;11875;49.356;2.718;2022-09-16T18:36:04;16.90;96.80
23405;DHT22;11875;49.356;2.718;2022-09-16T18:38:31;17.00;96.80
23405;DHT22;11875;49.356;2.718;2022-09-16T18:41:10;17.00;96.70